createdAt,value
2018-11-12T00:02:45.823Z,80.8
2018-11-12T00:07:46.316Z,80.7
2018-11-12T00:12:28.291Z,80.8
2018-11-12T00:17:28.363Z,80.6
2018-11-12T00:22:28.104Z,80.5
2018-11-12T00:27:28.147Z,80.3
2018-11-12T00:32:28.255Z,80.4
2018-11-12T00:37:27.262Z,80.2
2018-11-12T00:42:28.705Z,79.8
2018-11-12T00:47:28.559Z,79.4
2018-11-12T00:52:28.676Z,79.3
2018-11-12T00:57:27.677Z,79.6
2018-11-12T01:02:27.531Z,79.4
2018-11-12T01:07:28.420Z,79.4
2018-11-12T01:12:28.175Z,79.4
2018-11-12T01:17:28.606Z,79.2
2018-11-12T01:22:28.143Z,78.8
2018-11-12T01:27:28.499Z,78.9
2018-11-12T01:32:27.688Z,79.1
2018-11-12T01:37:29.026Z,79.2
2018-11-12T01:42:28.009Z,79.0
2018-11-12T01:47:28.398Z,79.0
2018-11-12T01:52:27.638Z,79.0
2018-11-12T01:57:27.871Z,79.1
2018-11-12T02:02:28.581Z,79.3
2018-11-12T02:07:28.638Z,79.7
2018-11-12T02:12:28.467Z,79.9
2018-11-12T02:17:28.900Z,80.0
2018-11-12T02:22:28.281Z,80.0
2018-11-12T02:27:27.947Z,80.0
2018-11-12T02:32:28.213Z,80.0
2018-11-12T02:37:28.690Z,80.0
2018-11-12T02:42:27.663Z,79.8
2018-11-12T02:47:27.788Z,79.7
2018-11-12T02:52:28.109Z,79.5
2018-11-12T02:57:28.398Z,79.2
2018-11-12T03:02:28.957Z,79.3
2018-11-12T03:07:28.322Z,79.1
2018-11-12T03:12:28.038Z,78.9
2018-11-12T03:17:28.438Z,79.0
2018-11-12T03:22:28.539Z,79.0
2018-11-12T03:27:27.945Z,79.1
2018-11-12T03:32:28.343Z,79.0
2018-11-12T03:37:28.161Z,79.0
2018-11-12T03:42:28.394Z,78.7
2018-11-12T03:47:28.778Z,78.8
2018-11-12T03:52:27.892Z,78.5
2018-11-12T03:57:28.145Z,78.5
2018-11-12T04:02:27.969Z,78.4
2018-11-12T04:07:28.406Z,78.2
2018-11-12T04:12:28.469Z,78.7
2018-11-12T04:17:28.664Z,78.6
2018-11-12T04:22:28.409Z,78.4
2018-11-12T04:27:28.736Z,78.4
2018-11-12T04:32:28.155Z,77.9
2018-11-12T04:37:28.888Z,78.4
2018-11-12T04:42:28.372Z,78.4
2018-11-12T04:47:28.264Z,77.8
2018-11-12T04:52:27.204Z,77.8
2018-11-12T04:57:28.482Z,77.7
2018-11-12T05:02:28.091Z,77.7
2018-11-12T05:07:28.327Z,78.0
2018-11-12T05:12:28.469Z,77.6
2018-11-12T05:17:28.338Z,78.0
2018-11-12T05:22:28.646Z,77.6
2018-11-12T05:27:28.311Z,77.6
2018-11-12T05:32:27.716Z,78.0
2018-11-12T05:37:28.627Z,78.0
2018-11-12T05:42:28.846Z,77.9
2018-11-12T05:47:28.662Z,77.8
2018-11-12T05:52:27.642Z,77.6
2018-11-12T05:57:28.621Z,77.3
2018-11-12T06:02:28.308Z,77.3
2018-11-12T06:07:29.011Z,77.6
2018-11-12T06:12:28.748Z,77.6
2018-11-12T06:17:29.254Z,77.3
2018-11-12T06:22:28.414Z,77.5
2018-11-12T06:27:29.281Z,77.5
2018-11-12T06:32:28.688Z,77.4
2018-11-12T06:37:28.756Z,77.4
2018-11-12T06:42:28.578Z,77.4
2018-11-12T06:47:28.839Z,77.4
2018-11-12T06:52:29.526Z,77.6
2018-11-12T06:57:28.689Z,77.1
2018-11-12T07:02:27.953Z,77.3
2018-11-12T07:07:28.447Z,76.7
2018-11-12T07:12:28.292Z,77.3
2018-11-12T07:17:28.838Z,77.0
2018-11-12T07:22:29.932Z,76.5
2018-11-12T07:27:28.674Z,76.5
2018-11-12T07:32:28.006Z,76.4
2018-11-12T07:37:28.464Z,76.3
2018-11-12T07:42:28.970Z,75.8
2018-11-12T07:47:28.746Z,75.9
2018-11-12T07:52:28.300Z,75.7
2018-11-12T07:57:28.466Z,75.7
2018-11-12T08:02:28.992Z,75.5
2018-11-12T08:07:28.272Z,75.6
2018-11-12T08:12:28.420Z,75.5
2018-11-12T08:17:30.471Z,75.4
2018-11-12T08:22:28.018Z,75.4
2018-11-12T08:27:28.829Z,75.4
2018-11-12T08:32:28.662Z,75.8
2018-11-12T08:37:27.810Z,76.0
2018-11-12T08:42:28.220Z,76.2
2018-11-12T08:47:29.252Z,76.4
2018-11-12T08:52:28.411Z,75.9
2018-11-12T08:57:28.224Z,75.8
2018-11-12T09:02:29.319Z,75.8
2018-11-12T09:07:28.566Z,75.3
2018-11-12T09:12:29.230Z,76.0
2018-11-12T09:17:29.778Z,76.7
2018-11-12T09:22:29.278Z,76.7
2018-11-12T09:27:29.165Z,76.8
2018-11-12T09:32:29.331Z,76.8
2018-11-12T09:37:28.769Z,77.2
2018-11-12T09:42:28.803Z,77.6
2018-11-12T09:47:28.462Z,77.9
2018-11-12T09:52:28.155Z,77.8
2018-11-12T09:57:29.256Z,77.7
2018-11-12T10:02:30.354Z,78.1
2018-11-12T10:07:33.856Z,78.1
2018-11-12T10:12:36.546Z,78.4
2018-11-12T10:17:36.547Z,78.4
2018-11-12T10:22:28.586Z,77.7
2018-11-12T10:27:28.784Z,78.6
2018-11-12T10:32:28.672Z,78.8
2018-11-12T10:37:29.431Z,78.8
2018-11-12T10:42:28.904Z,78.8
2018-11-12T10:47:28.128Z,78.7
2018-11-12T10:52:29.144Z,78.9
2018-11-12T10:57:29.332Z,79.5
2018-11-12T11:02:27.972Z,79.3
2018-11-12T11:07:30.439Z,79.4
2018-11-12T11:12:28.279Z,79.4
2018-11-12T11:17:28.967Z,79.2
2018-11-12T11:22:28.544Z,79.2
2018-11-12T11:27:30.047Z,79.3
2018-11-12T11:32:29.054Z,79.4
2018-11-12T11:37:29.001Z,79.5
2018-11-12T11:42:28.417Z,79.4
2018-11-12T11:47:31.261Z,79.5
2018-11-12T11:52:28.484Z,79.6
2018-11-12T11:57:29.430Z,79.6
2018-11-12T12:02:27.622Z,79.8
2018-11-12T12:07:28.662Z,79.9
2018-11-12T12:12:28.211Z,80.0
2018-11-12T12:17:28.558Z,79.9
2018-11-12T12:22:29.276Z,79.7
2018-11-12T12:27:28.456Z,80.0
2018-11-12T12:32:28.619Z,80.0
2018-11-12T12:37:28.388Z,80.0
2018-11-12T12:42:29.658Z,80.0
2018-11-12T12:47:28.469Z,79.7
2018-11-12T12:52:29.247Z,79.5
2018-11-12T12:57:28.559Z,79.3
2018-11-12T13:02:28.605Z,79.4
2018-11-12T13:07:29.501Z,79.9
2018-11-12T13:12:28.067Z,78.9
2018-11-12T13:17:29.312Z,79.0
2018-11-12T13:22:28.863Z,79.3
2018-11-12T13:27:28.603Z,80.3
2018-11-12T13:32:29.134Z,80.0
2018-11-12T13:37:28.883Z,80.0
2018-11-12T13:42:28.441Z,79.9
2018-11-12T13:47:28.987Z,79.4
2018-11-12T13:52:28.455Z,79.2
2018-11-12T13:57:28.961Z,78.4
2018-11-12T14:02:29.422Z,77.8
2018-11-12T14:07:28.489Z,76.6
2018-11-12T14:12:28.515Z,74.7
2018-11-12T14:17:29.080Z,74.7
2018-11-12T14:22:28.266Z,74.8
2018-11-12T14:27:29.287Z,74.0
2018-11-12T14:32:28.693Z,73.5
2018-11-12T14:37:28.471Z,75.2
2018-11-12T14:42:28.886Z,79.4
2018-11-12T14:47:28.753Z,80.0
2018-11-12T14:52:28.637Z,79.9
2018-11-12T14:57:29.399Z,76.2
2018-11-12T15:02:29.291Z,73.0
2018-11-12T15:07:28.984Z,72.4
2018-11-12T15:12:28.399Z,72.1
2018-11-12T15:17:29.166Z,72.1
2018-11-12T15:22:28.603Z,73.6
2018-11-12T15:27:28.222Z,76.3
2018-11-12T15:32:28.718Z,78.2
2018-11-12T15:37:29.587Z,79.5
2018-11-12T15:42:28.422Z,79.6
2018-11-12T15:47:28.321Z,81.7
2018-11-12T15:52:28.356Z,83.9
2018-11-12T15:57:29.480Z,84.6
2018-11-12T16:02:29.423Z,84.8
2018-11-12T16:07:28.327Z,85.0
2018-11-12T16:12:28.462Z,85.2
2018-11-12T16:17:28.491Z,85.0
2018-11-12T16:22:28.820Z,84.4
2018-11-12T16:27:28.969Z,84.2
2018-11-12T16:32:28.466Z,84.2
2018-11-12T16:37:27.851Z,83.9
2018-11-12T16:42:27.926Z,83.8
2018-11-12T16:47:28.276Z,83.8
2018-11-12T16:52:28.363Z,83.5
2018-11-12T16:57:27.971Z,83.5
2018-11-12T17:02:28.898Z,83.5
2018-11-12T17:07:28.432Z,83.4
2018-11-12T17:12:28.636Z,83.0
2018-11-12T17:17:28.543Z,83.0
2018-11-12T17:22:28.228Z,82.6
2018-11-12T17:27:28.424Z,82.6
2018-11-12T17:32:27.807Z,82.5
2018-11-12T17:37:28.715Z,82.6
2018-11-12T17:42:28.867Z,82.7
2018-11-12T17:47:28.311Z,82.6
2018-11-12T17:52:28.247Z,82.6
2018-11-12T17:57:28.809Z,82.6
2018-11-12T18:02:28.426Z,82.6
2018-11-12T18:07:29.732Z,82.7
2018-11-12T18:12:27.911Z,82.5
2018-11-12T18:17:28.247Z,82.6
2018-11-12T18:22:28.860Z,82.4
2018-11-12T18:27:28.028Z,82.3
2018-11-12T18:32:28.272Z,82.4
2018-11-12T18:37:28.302Z,82.5
2018-11-12T18:42:27.879Z,82.5
2018-11-12T18:47:28.782Z,82.5
2018-11-12T18:52:27.593Z,82.3
2018-11-12T18:57:27.932Z,82.4
2018-11-12T19:02:27.788Z,82.4
2018-11-12T19:07:28.025Z,82.5
2018-11-12T19:12:27.585Z,82.1
2018-11-12T19:17:29.781Z,82.1
2018-11-12T19:22:27.470Z,82.0
2018-11-12T19:27:28.200Z,82.0
2018-11-12T19:32:28.158Z,81.8
2018-11-12T19:37:28.624Z,81.8
2018-11-12T19:42:28.054Z,81.7
2018-11-12T19:47:28.298Z,81.8
2018-11-12T19:52:28.133Z,81.8
2018-11-12T19:57:29.959Z,81.7
2018-11-12T20:02:28.543Z,81.6
2018-11-12T20:07:28.486Z,81.7
2018-11-12T20:12:28.589Z,81.6
2018-11-12T20:17:29.041Z,81.5
2018-11-12T20:22:27.751Z,81.7
2018-11-12T20:27:28.261Z,81.6
2018-11-12T20:32:28.585Z,81.5
2018-11-12T20:37:27.657Z,81.6
2018-11-12T20:42:28.395Z,81.4
2018-11-12T20:47:28.293Z,81.4
2018-11-12T20:52:28.262Z,81.3
2018-11-12T20:57:28.731Z,81.2
2018-11-12T21:02:28.394Z,81.2
2018-11-12T21:07:28.560Z,81.2
2018-11-12T21:12:28.032Z,80.8
2018-11-12T21:17:28.411Z,80.9
2018-11-12T21:22:29.155Z,81.0
2018-11-12T21:27:27.756Z,81.0
2018-11-12T21:32:28.002Z,81.1
2018-11-12T21:37:28.302Z,80.9
2018-11-12T21:42:27.692Z,80.6
2018-11-12T21:47:28.845Z,80.5
2018-11-12T21:52:27.870Z,80.6
2018-11-12T21:57:28.203Z,80.3
2018-11-12T22:02:28.472Z,80.1
2018-11-12T22:07:28.817Z,80.4
2018-11-12T22:12:28.928Z,80.3
2018-11-12T22:17:28.724Z,80.2
2018-11-12T22:22:27.740Z,79.9
2018-11-12T22:27:28.519Z,80.2
2018-11-12T22:32:28.499Z,80.2
2018-11-12T22:37:28.525Z,80.0
2018-11-12T22:42:27.841Z,80.1
2018-11-12T22:47:28.325Z,80.0
2018-11-12T22:52:28.904Z,79.9
2018-11-12T22:57:28.043Z,80.2
2018-11-12T23:02:30.276Z,79.8
2018-11-12T23:07:28.484Z,80.2
2018-11-12T23:12:28.573Z,80.3
2018-11-12T23:22:41.529Z,79.8
2018-11-12T23:27:39.262Z,80.0
2018-11-12T23:32:40.113Z,80.0
2018-11-12T23:37:40.658Z,79.7
2018-11-12T23:42:40.794Z,79.7
2018-11-12T23:47:39.687Z,79.8
2018-11-12T23:52:39.998Z,79.6
2018-11-12T23:57:39.602Z,79.6
